Orlando, Florida
Traffic Map
Current Weather Conditions
Orlando, Florida
Broken Clouds
Broken Clouds
18°
Feels Like: 18°
Wind Chill: 18° Ceiling: 2400
Heat Index: 18° Visibility: 10mi
Dew Point: 17° Wind: 5mph
Humidity: 90% Direction: 230° (SW)
Pressure: 29.65in Gusts: 0mph
Raw Report DataKORL 231353Z 23004KT 10SM FEW009 BKN024 18/17 A2965 RMK AO2 SLP043 T01830167
Traffic Incident Summary
Active as of:
Severity:
Category:
InformationThere was an issue retrieving the traffic information for this location. Please try a different location or try again shortly.
Advertisements
Track Severe Weather on mobile